Time;durP1;ratioP1;P1;durP2;ratioP2;P2;SDS_P1;SDS_P2;PMS_P1;PMS_P2;Temp;Humidity;BMP_temperature;BMP_pressure;BME280_temperature;BME280_humidity;BME280_pressure;Samples;Min_cycle;Max_cycle;Signal;HPM_P1;HPM_P2
2023/08/20 00:00:22;;;;;;;10.60;5.82;;;;;;;22.77;68.47;96238.81;2066092;28;20398;-59
2023/08/20 00:01:25;;;;;;;12.68;5.90;;;;;;;22.68;68.73;96235.22;2065185;28;20054;-59
2023/08/20 00:02:26;;;;;;;11.07;5.90;;;;;;;22.67;68.75;96238.84;2066110;28;20058;-59
2023/08/20 00:03:27;;;;;;;9.48;6.00;;;;;;;22.57;69.16;96235.38;2057355;28;20487;-59
2023/08/20 00:04:28;;;;;;;10.05;6.10;;;;;;;22.52;68.89;96236.78;2057388;28;20062;-59
2023/08/20 00:05:31;;;;;;;14.80;6.38;;;;;;;22.54;68.79;96238.31;2057591;28;20054;-60
2023/08/20 00:06:32;;;;;;;12.98;6.32;;;;;;;22.62;69.64;96245.53;2065270;28;20061;-60
2023/08/20 00:07:33;;;;;;;12.45;6.30;;;;;;;22.61;69.65;96239.41;2065952;28;20061;-59
2023/08/20 00:08:35;;;;;;;8.70;6.10;;;;;;;22.62;69.96;96241.06;2065613;28;20051;-59
2023/08/20 00:09:36;;;;;;;13.68;6.40;;;;;;;22.59;70.70;96240.53;2065895;28;20054;-59
2023/08/20 00:10:38;;;;;;;12.27;6.03;;;;;;;22.57;70.98;96230.06;2066202;28;20077;-59
2023/08/20 00:11:39;;;;;;;10.07;5.82;;;;;;;22.51;71.31;96243.88;2056620;28;20062;-59
2023/08/20 00:12:40;;;;;;;13.07;6.07;;;;;;;22.43;71.65;96238.44;2057417;28;20085;-60
2023/08/20 00:13:41;;;;;;;11.55;6.03;;;;;;;22.32;71.47;96233.28;2065599;28;20081;-59
2023/08/20 00:14:56;;;;;;;12.35;6.68;;;;;;;22.30;72.37;96236.06;2065262;28;20054;-59
2023/08/20 00:15:57;;;;;;;12.68;6.32;;;;;;;22.38;72.32;96246.78;2066055;28;20506;-59
2023/08/20 00:17:00;;;;;;;14.18;6.30;;;;;;;22.31;72.14;96228.97;2066082;28;20046;-59
2023/08/20 00:18:02;;;;;;;10.93;6.57;;;;;;;22.33;72.26;96230.50;2065194;28;20050;-59
2023/08/20 00:19:04;;;;;;;10.90;6.50;;;;;;;22.32;71.55;96238.56;2065762;28;20046;-59
2023/08/20 00:20:18;;;;;;;10.40;6.55;;;;;;;22.24;72.24;96228.72;2065510;28;20046;-59
2023/08/20 00:21:19;;;;;;;9.32;6.70;;;;;;;22.24;71.98;96226.06;2066036;28;20050;-59
2023/08/20 00:22:24;;;;;;;10.15;6.03;;;;;;;22.22;72.64;96234.13;2065781;28;20069;-59
2023/08/20 00:23:25;;;;;;;8.60;6.25;;;;;;;22.18;72.76;96235.34;2065742;28;20062;-59
2023/08/20 00:24:27;;;;;;;11.90;6.30;;;;;;;22.14;72.76;96236.59;2064831;28;20054;-59
2023/08/20 00:25:28;;;;;;;8.07;5.65;;;;;;;22.10;72.92;96229.91;2065631;28;20050;-59
2023/08/20 00:26:29;;;;;;;7.72;6.22;;;;;;;22.06;73.45;96233.81;2065903;28;20065;-59
2023/08/20 00:27:31;;;;;;;11.35;6.40;;;;;;;21.99;73.92;96240.59;2065995;28;20054;-59
2023/08/20 00:28:38;;;;;;;8.77;5.97;;;;;;;21.92;73.89;96239.47;2066044;28;20387;-59
2023/08/20 00:29:39;;;;;;;12.93;6.55;;;;;;;21.90;74.46;96246.72;2065407;28;20061;-59
2023/08/20 00:30:40;;;;;;;11.50;6.55;;;;;;;21.82;74.80;96242.13;2065488;28;20065;-59
2023/08/20 00:31:41;;;;;;;16.23;6.97;;;;;;;21.77;75.09;96234.59;2065107;28;20054;-60
2023/08/20 00:32:43;;;;;;;12.40;7.15;;;;;;;21.76;75.19;96243.50;2065021;28;20050;-59
2023/08/20 00:33:44;;;;;;;10.77;5.97;;;;;;;21.76;75.24;96242.66;2065912;28;20047;-59
2023/08/20 00:34:45;;;;;;;12.10;6.60;;;;;;;21.74;74.85;96239.31;2049011;29;20055;-59
2023/08/20 00:35:46;;;;;;;11.65;6.47;;;;;;;21.70;75.02;96238.72;2049049;29;20055;-59
2023/08/20 00:36:47;;;;;;;12.63;6.82;;;;;;;21.68;75.13;96237.19;2057048;28;20055;-59
2023/08/20 00:37:48;;;;;;;9.50;6.15;;;;;;;21.64;75.98;96241.91;2048976;29;20059;-59
2023/08/20 00:38:49;;;;;;;13.15;6.68;;;;;;;21.62;75.61;96241.22;2056650;28;20131;-59
2023/08/20 00:39:50;;;;;;;11.38;5.97;;;;;;;21.60;76.00;96243.16;2056832;28;20495;-59
2023/08/20 00:40:51;;;;;;;13.88;6.78;;;;;;;21.54;76.28;96239.25;2057058;28;20054;-59
2023/08/20 00:41:53;;;;;;;10.00;6.55;;;;;;;21.50;76.76;96229.09;2065326;28;20054;-59
2023/08/20 00:42:54;;;;;;;11.18;6.35;;;;;;;21.55;76.57;96237.44;2056453;28;20209;-59
2023/08/20 00:43:56;;;;;;;9.93;6.20;;;;;;;21.56;77.39;96241.75;2048896;28;20047;-59
2023/08/20 00:44:58;;;;;;;12.90;6.45;;;;;;;21.53;77.10;96245.50;2056462;28;20062;-59
2023/08/20 00:45:59;;;;;;;10.52;6.65;;;;;;;21.48;77.13;96234.50;2065817;28;20054;-59
2023/08/20 00:47:02;;;;;;;12.07;6.68;;;;;;;21.44;77.25;96234.88;2064782;28;20050;-59
2023/08/20 00:48:04;;;;;;;12.18;6.90;;;;;;;21.44;77.51;96245.44;2057162;28;20380;-59
2023/08/20 00:49:05;;;;;;;11.68;6.80;;;;;;;21.43;77.72;96247.25;2057096;28;20087;-59
2023/08/20 00:50:06;;;;;;;12.07;6.82;;;;;;;21.39;77.55;96252.97;2065098;28;20062;-59
2023/08/20 00:51:07;;;;;;;10.40;6.57;;;;;;;21.33;77.63;96247.22;2064801;28;20058;-59
2023/08/20 00:52:09;;;;;;;11.82;6.22;;;;;;;21.31;78.08;96254.44;2065022;28;20053;-59
2023/08/20 00:53:10;;;;;;;11.65;6.88;;;;;;;21.28;78.22;96249.41;2049252;29;20055;-59
2023/08/20 00:54:12;;;;;;;13.00;6.57;;;;;;;21.26;78.22;96250.50;2041254;28;20055;-59
2023/08/20 00:55:13;;;;;;;11.65;5.80;;;;;;;21.25;78.07;96252.31;2048515;28;20058;-59
2023/08/20 00:56:15;;;;;;;11.85;5.90;;;;;;;21.24;77.82;96252.44;2057144;28;20058;-59
2023/08/20 00:57:19;;;;;;;10.02;6.25;;;;;;;21.24;78.10;96252.44;2064477;28;20057;-59
2023/08/20 00:58:20;;;;;;;10.63;6.43;;;;;;;21.23;78.10;96256.91;2040867;29;20460;-59
2023/08/20 00:59:21;;;;;;;11.07;6.35;;;;;;;21.21;78.25;96253.53;2040969;28;20055;-59
2023/08/20 01:00:23;;;;;;;10.32;6.43;;;;;;;21.19;78.63;96249.34;2049011;28;20051;-59
2023/08/20 01:01:24;;;;;;;11.90;6.75;;;;;;;21.14;78.42;96252.38;2048744;28;20476;-59
2023/08/20 01:02:25;;;;;;;9.93;6.72;;;;;;;21.13;78.82;96259.47;2065391;28;20062;-59
2023/08/20 01:03:26;;;;;;;11.07;6.10;;;;;;;21.09;79.10;96255.44;2065583;28;20076;-60
2023/08/20 01:04:31;;;;;;;9.88;6.13;;;;;;;21.05;79.47;96254.00;2065794;28;20061;-59
2023/08/20 01:05:34;;;;;;;10.77;6.75;;;;;;;21.02;79.60;96253.44;2057001;28;20069;-59
2023/08/20 01:06:39;;;;;;;17.20;7.15;;;;;;;20.98;79.64;96262.56;2041321;29;20062;-59
2023/08/20 01:08:08;;;;;;;12.02;6.95;;;;;;;20.93;79.60;96255.91;2050377;28;20059;-59
2023/08/20 01:09:32;;;;;;;11.65;7.10;;;;;;;20.87;79.80;96261.69;2064349;28;20502;-59
2023/08/20 01:10:43;;;;;;;17.02;6.90;;;;;;;20.81;80.04;96253.44;2057029;28;20384;-59
2023/08/20 01:11:51;;;;;;;10.88;6.78;;;;;;;20.80;80.31;96259.72;2058256;28;20051;-59
2023/08/20 01:12:53;;;;;;;11.75;7.32;;;;;;;20.73;80.96;96264.66;2065258;28;20058;-59
2023/08/20 01:13:55;;;;;;;13.77;7.85;;;;;;;20.70;80.95;96263.09;2041072;29;20079;-59
2023/08/20 01:14:56;;;;;;;12.07;7.57;;;;;;;20.66;81.40;96268.75;2040744;28;20064;-59
2023/08/20 01:15:57;;;;;;;12.70;7.10;;;;;;;20.65;81.21;96277.66;2056351;28;20487;-59
2023/08/20 01:16:58;;;;;;;13.48;7.03;;;;;;;20.64;81.31;96282.09;2049060;29;20058;-59
2023/08/20 01:18:00;;;;;;;12.90;7.50;;;;;;;20.60;81.95;96271.91;2049232;28;20436;-59
2023/08/20 01:19:02;;;;;;;11.43;7.47;;;;;;;20.54;81.89;96275.06;2065190;28;20057;-59
2023/08/20 01:20:05;;;;;;;12.73;7.50;;;;;;;20.46;81.52;96273.03;2064766;28;20054;-59
2023/08/20 01:21:29;;;;;;;16.27;7.95;;;;;;;20.49;81.71;96272.78;2064776;28;20054;-60
2023/08/20 01:23:15;;;;;;;12.75;7.43;;;;;;;20.52;81.77;96274.31;2049089;29;20051;-59
2023/08/20 01:24:22;;;;;;;10.75;6.90;;;;;;;20.49;81.30;96278.03;2063090;28;20479;-59
2023/08/20 01:26:00;;;;;;;15.15;7.25;;;;;;;20.44;81.37;96275.78;2065316;28;20050;-59
2023/08/20 01:27:24;;;;;;;10.20;7.00;;;;;;;20.31;82.79;96266.38;2064963;28;20042;-60
2023/08/20 01:28:28;;;;;;;12.32;7.70;;;;;;;20.20;83.25;96262.81;2048950;29;20215;-59
2023/08/20 01:29:30;;;;;;;15.20;7.95;;;;;;;20.19;82.87;96266.41;2057235;28;20476;-59
2023/08/20 01:30:31;;;;;;;13.35;7.93;;;;;;;20.19;82.37;96265.59;2056796;28;20055;-58
2023/08/20 01:31:32;;;;;;;15.75;8.48;;;;;;;20.19;82.26;96265.59;2040527;29;20066;-60
2023/08/20 01:32:33;;;;;;;15.52;6.97;;;;;;;20.20;82.46;96264.59;2041032;29;20068;-59
2023/08/20 01:33:34;;;;;;;17.25;7.68;;;;;;;20.22;82.67;96266.16;2049223;28;20062;-59
2023/08/20 01:34:36;;;;;;;11.68;7.72;;;;;;;20.25;82.50;96267.72;2056823;28;20070;-59
2023/08/20 01:35:37;;;;;;;12.50;7.40;;;;;;;20.27;82.06;96260.53;2048842;29;20523;-60
2023/08/20 01:36:38;;;;;;;14.18;7.47;;;;;;;20.27;82.20;96266.63;2048711;28;20071;-59
2023/08/20 01:37:39;;;;;;;14.50;7.93;;;;;;;20.26;81.89;96266.75;2056495;28;20066;-59
2023/08/20 01:38:40;;;;;;;15.15;7.97;;;;;;;20.27;81.91;96269.25;2057287;28;20054;-59
2023/08/20 01:39:41;;;;;;;13.35;6.85;;;;;;;20.29;81.69;96269.16;2065446;28;20058;-59
2023/08/20 01:40:43;;;;;;;13.38;7.35;;;;;;;20.32;81.61;96273.34;2065427;28;20066;-59
2023/08/20 01:41:44;;;;;;;12.55;7.55;;;;;;;20.33;81.74;96272.38;2056506;28;20051;-60
2023/08/20 01:42:45;;;;;;;14.68;7.05;;;;;;;20.33;81.73;96269.72;2048709;29;20059;-59
2023/08/20 01:43:48;;;;;;;12.00;7.32;;;;;;;20.31;81.61;96267.19;2057161;28;20059;-59
2023/08/20 01:44:49;;;;;;;13.63;7.38;;;;;;;20.31;81.71;96269.00;2065337;28;20055;-59
2023/08/20 01:45:51;;;;;;;13.13;7.32;;;;;;;20.27;81.94;96268.44;2065342;28;20058;-59
2023/08/20 01:46:52;;;;;;;14.68;7.78;;;;;;;20.32;81.79;96274.16;2065505;28;20105;-59
2023/08/20 01:47:54;;;;;;;13.00;7.45;;;;;;;20.31;81.96;96264.56;2057044;28;20387;-59
2023/08/20 01:48:55;;;;;;;8.40;6.65;;;;;;;20.37;82.26;96265.84;2056529;28;20055;-59
2023/08/20 01:49:56;;;;;;;15.25;7.70;;;;;;;20.40;82.54;96269.09;2056851;28;20062;-59
2023/08/20 01:50:57;;;;;;;11.60;6.80;;;;;;;20.38;82.56;96276.28;2057155;28;20046;-59
2023/08/20 01:51:58;;;;;;;12.82;7.97;;;;;;;20.34;83.22;96268.75;2065356;28;20057;-60
2023/08/20 01:52:59;;;;;;;9.55;6.72;;;;;;;20.31;83.36;96277.75;2064346;28;20521;-59
2023/08/20 01:54:01;;;;;;;11.15;6.85;;;;;;;20.25;83.58;96271.19;2056634;28;20093;-59
2023/08/20 01:55:03;;;;;;;12.20;7.60;;;;;;;20.17;84.07;96262.22;2056827;28;20051;-59
2023/08/20 01:56:10;;;;;;;14.98;7.95;;;;;;;20.15;84.04;96272.06;2048601;29;20439;-59
2023/08/20 01:57:11;;;;;;;12.05;7.10;;;;;;;20.09;84.32;96270.75;2042017;28;20063;-59
2023/08/20 01:58:12;;;;;;;12.25;7.55;;;;;;;20.04;84.48;96273.75;2048680;29;20082;-60
2023/08/20 01:59:14;;;;;;;11.13;7.25;;;;;;;20.04;84.13;96278.19;2049085;29;20067;-59
2023/08/20 02:00:15;;;;;;;12.55;7.38;;;;;;;20.01;84.17;96273.19;2048900;29;20058;-59
2023/08/20 02:01:16;;;;;;;10.15;7.15;;;;;;;19.99;84.30;96277.72;2056517;28;20062;-59
2023/08/20 02:02:17;;;;;;;9.75;7.38;;;;;;;19.97;84.64;96275.22;2065414;28;20054;-59
2023/08/20 02:03:18;;;;;;;11.60;7.55;;;;;;;19.94;84.53;96277.25;2065531;28;20395;-59
2023/08/20 02:04:19;;;;;;;11.13;7.55;;;;;;;19.95;85.06;96278.94;2056698;28;20385;-59
2023/08/20 02:05:20;;;;;;;11.98;7.25;;;;;;;19.92;85.01;96284.47;2056016;28;20046;-60
2023/08/20 02:06:21;;;;;;;13.00;7.47;;;;;;;19.87;85.38;96276.94;2065494;28;20050;-60
2023/08/20 02:07:23;;;;;;;12.73;7.78;;;;;;;19.85;85.51;96278.84;2056905;28;20047;-59
2023/08/20 02:08:24;;;;;;;12.70;7.50;;;;;;;19.80;85.76;96279.19;2056737;28;20058;-59
2023/08/20 02:09:25;;;;;;;13.63;7.40;;;;;;;19.74;86.00;96279.69;2056930;28;20051;-60
2023/08/20 02:10:26;;;;;;;12.52;7.72;;;;;;;19.77;86.11;96281.25;2056507;28;20061;-59
2023/08/20 02:11:27;;;;;;;11.32;7.50;;;;;;;19.74;86.64;96281.50;2057684;28;20066;-59
2023/08/20 02:12:28;;;;;;;18.63;8.25;;;;;;;19.73;86.21;96285.09;2066777;28;20051;-60
2023/08/20 02:13:30;;;;;;;12.05;8.20;;;;;;;19.69;86.53;96284.50;2058305;28;20054;-59
2023/08/20 02:14:34;;;;;;;10.52;7.88;;;;;;;19.69;86.56;96283.66;2050010;28;20047;-59
2023/08/20 02:15:35;;;;;;;13.30;7.97;;;;;;;19.68;86.39;96284.63;2058808;28;20067;-60
2023/08/20 02:16:36;;;;;;;11.88;8.43;;;;;;;19.66;86.30;96284.72;2066527;28;20546;-60
2023/08/20 02:17:38;;;;;;;13.73;7.95;;;;;;;19.64;86.37;96291.88;2066637;28;20058;-60
2023/08/20 02:18:39;;;;;;;12.73;8.07;;;;;;;19.65;86.57;96287.47;2066240;28;20406;-60
2023/08/20 02:19:40;;;;;;;15.45;8.52;;;;;;;19.64;86.58;96288.41;2066472;28;20054;-60
2023/08/20 02:20:43;;;;;;;17.70;9.02;;;;;;;19.63;86.60;96281.47;2066349;28;20055;-60
2023/08/20 02:21:44;;;;;;;12.77;7.53;;;;;;;19.61;86.41;96290.31;2057684;28;20080;-60
2023/08/20 02:22:45;;;;;;;12.43;7.95;;;;;;;19.60;86.77;96288.66;2058159;28;20062;-60
2023/08/20 02:23:46;;;;;;;10.68;7.68;;;;;;;19.60;87.07;96283.41;2058072;28;20059;-60
2023/08/20 02:24:47;;;;;;;13.15;7.80;;;;;;;19.59;86.89;96281.72;2066361;28;20058;-58
2023/08/20 02:25:50;;;;;;;13.05;8.45;;;;;;;19.58;87.15;96287.94;2058007;28;20055;-58
2023/08/20 02:26:51;;;;;;;13.23;8.13;;;;;;;19.59;86.76;96286.13;2058059;28;20054;-59
2023/08/20 02:27:52;;;;;;;17.35;8.82;;;;;;;19.56;86.54;96279.31;2066908;28;20403;-59
2023/08/20 02:28:53;;;;;;;10.43;7.35;;;;;;;19.56;86.58;96292.47;2066676;28;20050;-59
2023/08/20 02:29:54;;;;;;;11.52;7.60;;;;;;;19.54;86.66;96291.78;2066642;28;20046;-60
2023/08/20 02:30:57;;;;;;;12.32;7.80;;;;;;;19.49;87.02;96301.00;2058031;28;20081;-59
2023/08/20 02:31:58;;;;;;;12.43;8.07;;;;;;;19.47;87.65;96297.66;2057588;28;20427;-60
2023/08/20 02:32:59;;;;;;;13.52;7.57;;;;;;;19.40;88.31;96294.63;2066742;28;20046;-60
2023/08/20 02:34:01;;;;;;;14.90;8.32;;;;;;;19.35;88.29;96287.13;2066837;28;20042;-60
2023/08/20 02:35:05;;;;;;;11.77;8.05;;;;;;;19.34;88.75;96298.59;2057986;28;20061;-60
2023/08/20 02:36:06;;;;;;;15.63;8.25;;;;;;;19.35;88.78;96289.75;2058351;28;20395;-59
2023/08/20 02:37:07;;;;;;;14.88;8.55;;;;;;;19.36;88.62;96290.59;2057913;28;20531;-60
2023/08/20 02:38:09;;;;;;;12.20;7.95;;;;;;;19.34;88.26;96290.69;2049821;29;20055;-60
2023/08/20 02:39:10;;;;;;;10.38;7.93;;;;;;;19.39;88.42;96291.19;2057290;28;20047;-60
2023/08/20 02:40:13;;;;;;;10.43;7.72;;;;;;;19.40;88.62;96286.75;2050016;29;20058;-59
2023/08/20 02:41:14;;;;;;;12.80;8.07;;;;;;;19.35;88.91;96288.88;2057886;28;20061;-60
2023/08/20 02:42:16;;;;;;;11.30;7.60;;;;;;;19.34;88.44;96290.69;2057958;28;20055;-60
2023/08/20 02:43:17;;;;;;;10.88;7.60;;;;;;;19.36;88.55;96290.59;2058168;28;20070;-60
2023/08/20 02:44:18;;;;;;;12.43;8.05;;;;;;;19.39;88.71;96287.72;2065473;28;20522;-59
2023/08/20 02:45:21;;;;;;;13.80;7.53;;;;;;;19.38;88.63;96292.16;2058003;28;20059;-60
2023/08/20 02:46:22;;;;;;;12.27;7.47;;;;;;;19.35;88.72;96288.88;2057968;28;20081;-60
2023/08/20 02:47:24;;;;;;;12.88;7.65;;;;;;;19.37;88.68;96289.63;2066265;28;20061;-60
2023/08/20 02:48:26;;;;;;;10.20;7.97;;;;;;;19.40;88.58;96294.63;2065993;28;20051;-60
2023/08/20 02:49:28;;;;;;;10.80;7.78;;;;;;;19.34;88.57;96287.22;2065433;28;20054;-59
2023/08/20 02:50:30;;;;;;;14.45;7.78;;;;;;;19.36;88.70;96290.59;2066208;28;20058;-60
2023/08/20 02:51:31;;;;;;;13.00;7.40;;;;;;;19.36;88.72;96295.84;2057873;28;20525;-60
2023/08/20 02:52:32;;;;;;;13.35;7.60;;;;;;;19.34;88.87;96295.97;2057871;28;20062;-59
2023/08/20 02:53:33;;;;;;;13.98;7.47;;;;;;;19.31;88.71;96298.00;2066144;28;20066;-58
2023/08/20 02:54:34;;;;;;;11.18;7.78;;;;;;;19.30;89.17;96296.31;2066034;28;20490;-59
2023/08/20 02:55:35;;;;;;;11.00;7.60;;;;;;;19.30;89.18;96298.94;2066617;28;20058;-59
2023/08/20 02:56:36;;;;;;;11.13;7.78;;;;;;;19.30;88.97;96294.53;2066047;28;20116;-59
2023/08/20 02:57:37;;;;;;;13.18;7.80;;;;;;;19.28;89.22;96295.59;2066098;28;20070;-59
2023/08/20 02:58:38;;;;;;;15.07;8.27;;;;;;;19.26;89.53;96293.09;2057162;28;20057;-60
2023/08/20 02:59:40;;;;;;;13.82;7.65;;;;;;;19.25;89.59;96295.84;2049823;29;20062;-60
2023/08/20 03:00:42;;;;;;;12.40;7.70;;;;;;;19.24;89.97;96291.53;2049535;29;20074;-60
2023/08/20 03:01:43;;;;;;;10.10;7.78;;;;;;;19.17;90.06;96289.38;2057785;28;20055;-60
2023/08/20 03:02:44;;;;;;;9.32;7.40;;;;;;;19.16;89.86;96290.34;2057416;28;20055;-60
2023/08/20 03:03:45;;;;;;;10.75;7.70;;;;;;;19.17;90.41;96297.28;2057547;28;20423;-60
2023/08/20 03:04:46;;;;;;;12.95;7.60;;;;;;;19.15;90.63;96290.44;2057483;28;20070;-60
2023/08/20 03:05:47;;;;;;;11.20;7.95;;;;;;;19.12;90.83;96296.78;2057928;28;20125;-60
2023/08/20 03:06:49;;;;;;;14.70;8.23;;;;;;;19.08;91.07;96295.31;2066057;28;20055;-60
2023/08/20 03:07:50;;;;;;;14.30;8.40;;;;;;;19.03;91.26;96286.97;2066034;28;20054;-59
2023/08/20 03:08:51;;;;;;;12.07;8.65;;;;;;;19.03;91.67;96294.00;2065989;28;20058;-60
2023/08/20 03:09:52;;;;;;;9.98;8.07;;;;;;;18.98;91.65;96290.88;2057371;28;20060;-60
2023/08/20 03:10:53;;;;;;;13.50;8.90;;;;;;;18.98;92.10;96296.16;2057668;28;20054;-60
2023/08/20 03:11:54;;;;;;;13.82;8.15;;;;;;;18.95;91.64;96289.31;2066053;28;20081;-59
2023/08/20 03:12:55;;;;;;;11.60;7.75;;;;;;;18.93;91.74;96291.25;2057922;28;20114;-59
2023/08/20 03:13:56;;;;;;;14.98;8.60;;;;;;;18.91;91.90;96295.78;2057865;28;20050;-60
2023/08/20 03:14:58;;;;;;;13.52;8.63;;;;;;;18.88;91.93;96286.34;2066378;28;20059;-60
2023/08/20 03:16:01;;;;;;;10.57;7.97;;;;;;;18.84;91.86;96287.50;2066491;28;20069;-60
2023/08/20 03:17:03;;;;;;;13.07;7.85;;;;;;;18.82;92.18;96288.56;2066504;28;20053;-60
2023/08/20 03:18:05;;;;;;;12.00;7.93;;;;;;;18.79;91.74;96288.81;2066285;28;20487;-60
2023/08/20 03:19:06;;;;;;;12.68;8.18;;;;;;;18.76;92.32;96291.69;2064983;28;20051;-59
2023/08/20 03:20:08;;;;;;;12.73;7.78;;;;;;;18.75;92.34;96285.59;2065444;28;20046;-60
2023/08/20 03:21:09;;;;;;;14.95;8.20;;;;;;;18.71;92.54;96292.84;2065929;28;20053;-59
2023/08/20 03:22:10;;;;;;;13.13;8.75;;;;;;;18.70;92.45;96288.50;2065555;28;20065;-60
2023/08/20 03:23:11;;;;;;;10.23;8.15;;;;;;;18.68;92.21;96290.44;2057811;28;20171;-60
2023/08/20 03:24:12;;;;;;;12.18;8.20;;;;;;;18.68;92.47;96294.84;2049557;29;20063;-59
2023/08/20 03:25:14;;;;;;;11.95;7.53;;;;;;;18.67;92.33;96301.06;2057741;28;20054;-59
2023/08/20 03:26:15;;;;;;;14.55;8.00;;;;;;;18.66;92.25;96296.78;2066386;28;20475;-59
2023/08/20 03:27:16;;;;;;;12.40;8.05;;;;;;;18.63;92.47;96295.22;2065995;28;20058;-59
2023/08/20 03:28:18;;;;;;;11.52;8.85;;;;;;;18.63;92.06;96299.59;2066268;28;20054;-59
2023/08/20 03:29:19;;;;;;;13.07;8.02;;;;;;;18.61;92.57;96298.91;2065313;28;20462;-59
2023/08/20 03:30:20;;;;;;;12.40;8.15;;;;;;;18.62;92.58;96292.69;2056849;28;20058;-60
2023/08/20 03:31:21;;;;;;;10.15;8.18;;;;;;;18.61;92.32;96296.28;2057690;28;20054;-60
2023/08/20 03:32:22;;;;;;;9.38;7.93;;;;;;;18.59;92.27;96296.38;2057536;28;20055;-59
2023/08/20 03:33:24;;;;;;;12.68;8.48;;;;;;;18.57;92.06;96298.28;2049614;28;20055;-60
2023/08/20 03:34:26;;;;;;;14.95;8.00;;;;;;;18.60;92.78;96295.41;2057377;28;20051;-60
2023/08/20 03:35:27;;;;;;;11.68;7.88;;;;;;;18.59;92.17;96292.91;2057373;28;20058;-60
2023/08/20 03:36:28;;;;;;;16.08;8.15;;;;;;;18.57;92.33;96289.56;2057234;28;20058;-60
2023/08/20 03:37:30;;;;;;;12.95;8.68;;;;;;;18.59;91.96;96298.19;2049628;28;20063;-60
2023/08/20 03:38:32;;;;;;;12.70;8.27;;;;;;;18.60;92.43;96294.59;2049639;28;20058;-60
2023/08/20 03:39:33;;;;;;;14.35;8.05;;;;;;;18.59;92.35;96293.75;2049322;29;20078;-60
2023/08/20 03:40:35;;;;;;;12.90;7.97;;;;;;;18.61;92.37;96291.84;2057488;28;20431;-60
2023/08/20 03:41:37;;;;;;;12.27;8.02;;;;;;;18.65;92.21;96295.09;2057600;28;20054;-60
2023/08/20 03:42:38;;;;;;;11.77;7.70;;;;;;;18.66;91.82;96297.59;2057279;28;20495;-60
2023/08/20 03:43:39;;;;;;;12.63;7.65;;;;;;;18.69;91.44;96292.13;2057299;28;20059;-60
2023/08/20 03:44:41;;;;;;;13.10;8.68;;;;;;;18.71;91.21;96295.47;2057320;28;20063;-60
2023/08/20 03:45:42;;;;;;;11.98;8.25;;;;;;;18.72;91.16;96296.31;2057230;28;20446;-59
2023/08/20 03:46:43;;;;;;;14.88;7.75;;;;;;;18.71;91.42;96291.97;2065276;28;20061;-60
2023/08/20 03:47:46;;;;;;;15.68;7.97;;;;;;;18.69;90.87;96296.53;2057519;28;20057;-60
2023/08/20 03:48:48;;;;;;;12.32;7.78;;;;;;;18.69;90.77;96301.81;2057685;28;20062;-60
2023/08/20 03:49:49;;;;;;;11.25;7.90;;;;;;;18.67;91.17;96306.34;2057387;28;20455;-60
2023/08/20 03:50:50;;;;;;;13.60;8.13;;;;;;;18.62;91.47;96297.94;2057557;28;20066;-59
2023/08/20 03:51:51;;;;;;;11.90;8.05;;;;;;;18.56;91.54;96301.88;2065692;28;20068;-60
2023/08/20 03:52:52;;;;;;;16.25;7.68;;;;;;;18.50;92.11;96300.53;2057084;28;20395;-59
2023/08/20 03:53:54;;;;;;;12.63;7.95;;;;;;;18.46;92.21;96303.50;2057639;28;20124;-59
2023/08/20 03:54:55;;;;;;;12.65;8.80;;;;;;;18.42;92.53;96302.06;2066400;28;20490;-60
2023/08/20 03:55:56;;;;;;;14.77;8.23;;;;;;;18.36;92.88;96297.25;2057126;28;20055;-60
2023/08/20 03:56:57;;;;;;;13.88;7.93;;;;;;;18.36;92.82;96294.59;2057357;28;20047;-60
2023/08/20 03:57:58;;;;;;;13.57;8.40;;;;;;;18.30;93.00;96301.16;2057462;28;20515;-60
2023/08/20 03:58:59;;;;;;;14.45;8.45;;;;;;;18.28;93.55;96289.91;2065647;28;20046;-60
2023/08/20 04:00:00;;;;;;;13.90;8.38;;;;;;;18.27;93.93;96294.34;2066026;28;20057;-59
2023/08/20 04:01:01;;;;;;;12.43;8.57;;;;;;;18.28;93.56;96295.16;2065098;28;20531;-60
2023/08/20 04:02:03;;;;;;;10.57;7.68;;;;;;;18.27;93.58;96299.59;2064971;28;20046;-59
2023/08/20 04:03:04;;;;;;;17.85;7.70;;;;;;;18.25;93.74;96290.13;2065625;28;20054;-60
2023/08/20 04:04:05;;;;;;;10.95;7.97;;;;;;;18.25;93.68;96298.84;2056733;28;20447;-60
2023/08/20 04:05:06;;;;;;;12.13;8.07;;;;;;;18.25;93.85;96301.47;2056985;28;20058;-59
2023/08/20 04:06:08;;;;;;;10.98;7.93;;;;;;;18.22;93.55;96295.63;2065037;28;20141;-60
2023/08/20 04:07:09;;;;;;;11.90;7.88;;;;;;;18.23;93.57;96295.53;2057599;28;20504;-60
2023/08/20 04:08:10;;;;;;;13.23;8.48;;;;;;;18.23;93.56;96292.91;2057022;28;20066;-60
2023/08/20 04:09:11;;;;;;;11.73;8.85;;;;;;;18.24;93.36;96294.56;2056699;28;20057;-59
2023/08/20 04:10:14;;;;;;;12.35;8.13;;;;;;;18.23;93.78;96303.41;2057618;28;20471;-59
2023/08/20 04:11:15;;;;;;;11.93;8.15;;;;;;;18.23;93.94;96302.53;2057109;28;20061;-59
2023/08/20 04:12:16;;;;;;;15.63;8.20;;;;;;;18.22;93.58;96301.72;2056932;28;20058;-59
2023/08/20 04:13:18;;;;;;;15.88;8.00;;;;;;;18.22;94.01;96306.13;2057263;28;20048;-60
2023/08/20 04:14:19;;;;;;;10.98;8.13;;;;;;;18.22;93.23;96300.88;2057125;28;20055;-59
2023/08/20 04:15:20;;;;;;;11.95;8.00;;;;;;;18.21;93.13;96302.69;2057207;28;20569;-59
2023/08/20 04:16:21;;;;;;;10.73;7.90;;;;;;;18.20;93.13;96301.00;2049248;29;20062;-59
2023/08/20 04:17:23;;;;;;;9.98;7.85;;;;;;;18.16;93.10;96296.91;2056517;28;20061;-59
2023/08/20 04:18:26;;;;;;;15.40;8.48;;;;;;;18.15;93.69;96308.38;2065250;28;20058;-60
2023/08/20 04:19:29;;;;;;;9.48;7.55;;;;;;;18.13;93.50;96312.06;2049305;29;20063;-59
2023/08/20 04:20:31;;;;;;;17.85;9.07;;;;;;;18.10;93.61;96307.03;2049551;28;20065;-59
2023/08/20 04:21:33;;;;;;;14.88;8.38;;;;;;;18.10;93.55;96313.13;2056867;28;20046;-59
2023/08/20 04:22:34;;;;;;;10.02;8.32;;;;;;;18.10;93.76;96312.31;2057281;28;20415;-59
2023/08/20 04:23:35;;;;;;;10.52;7.97;;;;;;;18.11;93.46;96313.97;2065870;28;20054;-59
2023/08/20 04:24:36;;;;;;;10.93;8.18;;;;;;;18.07;93.46;96316.00;2057252;28;20058;-59
2023/08/20 04:25:37;;;;;;;13.55;8.43;;;;;;;18.08;93.63;96320.28;2049471;28;20118;-59
2023/08/20 04:26:39;;;;;;;15.77;8.60;;;;;;;18.10;93.29;96317.56;2056896;28;20450;-60
2023/08/20 04:27:40;;;;;;;11.95;8.70;;;;;;;18.09;93.63;96308.81;2065694;28;20062;-59
2023/08/20 04:28:41;;;;;;;14.55;9.27;;;;;;;18.12;93.01;96316.47;2065939;28;20058;-59
2023/08/20 04:29:42;;;;;;;12.50;8.07;;;;;;;18.12;93.60;96323.53;2057328;28;20434;-59
2023/08/20 04:30:43;;;;;;;10.85;7.60;;;;;;;18.08;93.04;96310.59;2056569;28;20426;-59
2023/08/20 04:31:46;;;;;;;11.52;8.05;;;;;;;18.11;93.93;96321.84;2057214;28;20396;-59
2023/08/20 04:32:48;;;;;;;11.98;8.55;;;;;;;18.10;93.49;96314.94;2064619;28;20054;-59
2023/08/20 04:33:50;;;;;;;12.98;8.43;;;;;;;18.08;94.73;96315.03;2056848;28;20054;-59
2023/08/20 04:34:54;;;;;;;12.20;8.73;;;;;;;18.11;94.58;96316.59;2049590;28;20051;-59
2023/08/20 04:35:57;;;;;;;12.50;7.97;;;;;;;18.10;94.85;96310.50;2048878;28;20056;-59
2023/08/20 04:36:58;;;;;;;15.52;8.57;;;;;;;18.18;94.69;96321.31;2048918;28;20410;-59
2023/08/20 04:37:59;;;;;;;16.13;8.70;;;;;;;18.23;94.71;96318.31;2056774;28;20128;-59
2023/08/20 04:39:02;;;;;;;13.32;8.75;;;;;;;18.24;94.64;96315.59;2057012;28;20418;-60
2023/08/20 04:40:07;;;;;;;12.35;8.23;;;;;;;18.28;94.92;96310.94;2049404;28;20047;-59
2023/08/20 04:41:08;;;;;;;11.63;8.63;;;;;;;18.33;93.99;96313.25;2056880;28;20058;-59
2023/08/20 04:42:10;;;;;;;14.07;8.57;;;;;;;18.32;93.94;96309.78;2057099;28;20051;-58
2023/08/20 04:43:11;;;;;;;13.13;9.50;;;;;;;18.37;93.64;96317.34;2056373;28;20042;-59
2023/08/20 04:44:13;;;;;;;15.80;9.35;;;;;;;18.39;93.25;96316.28;2048619;28;20055;-59
2023/08/20 04:45:14;;;;;;;15.10;8.88;;;;;;;18.40;93.65;96317.09;2049241;29;20059;-59
2023/08/20 04:46:15;;;;;;;17.98;9.73;;;;;;;18.48;93.42;96326.09;2057270;28;20066;-59
2023/08/20 04:47:16;;;;;;;11.32;8.43;;;;;;;18.58;93.24;96317.53;2056964;28;20062;-59
2023/08/20 04:48:18;;;;;;;14.05;8.80;;;;;;;18.66;92.15;96326.53;2057061;28;20474;-60
2023/08/20 04:49:19;;;;;;;13.90;8.70;;;;;;;18.79;92.38;96323.00;2056970;28;20538;-60
2023/08/20 04:50:21;;;;;;;10.85;7.68;;;;;;;18.90;91.72;96320.44;2057079;28;20063;-60